Terminal Aerodrome Forecast
Issued by NWS Wichita, KS

Home | Current Version | Previous Version | Text Only | Print | Product List | Glossary Off
Versions: 1 2 3 4 5 6 7 8 9 10 11 12 13 14 15 16 17 18 19 20 21 22 23 24 25

000
FTUS43 KICT 170526
TAFICT
TAF
KICT 170526Z 1706/1806 09008KT P6SM SCT040 BKN150
     FM170800 12006KT P6SM VCTS SCT030 BKN080CB
      TEMPO 1708/1712 5SM -TSRA BKN035CB
     FM171600 14015G24KT P6SM SCT030 BKN050
     FM180100 15006KT P6SM SCT020 BKN035=

USA.gov is the U.S. government's official web portal to all federal, state and local government web resources and services.